createdAt,value
2022-10-17T00:00:16.470Z,97.10
2022-10-17T00:01:16.550Z,97.34
2022-10-17T00:02:16.448Z,97.40
2022-10-17T00:03:16.456Z,97.14
2022-10-17T00:04:16.429Z,97.00
2022-10-17T00:05:16.424Z,97.14
2022-10-17T00:06:16.422Z,97.20
2022-10-17T00:07:16.403Z,96.64
2022-10-17T00:08:16.402Z,97.05
2022-10-17T00:09:16.367Z,96.74
2022-10-17T00:10:16.370Z,97.34
2022-10-17T00:11:16.381Z,97.25
2022-10-17T00:12:16.343Z,97.55
2022-10-17T00:13:16.429Z,97.34
2022-10-17T00:14:16.324Z,97.34
2022-10-17T00:15:16.307Z,97.25
2022-10-17T00:16:16.309Z,97.34
2022-10-17T00:17:16.279Z,97.34
2022-10-17T00:18:16.268Z,96.94
2022-10-17T00:19:16.266Z,97.34
2022-10-17T00:20:16.251Z,97.55
2022-10-17T00:21:16.229Z,97.25
2022-10-17T00:22:16.229Z,97.55
2022-10-17T00:23:16.230Z,97.75
2022-10-17T00:24:16.215Z,97.55
2022-10-17T00:25:16.191Z,97.34
2022-10-17T00:26:16.184Z,97.55
2022-10-17T00:27:16.185Z,97.55
2022-10-17T00:28:16.176Z,97.55
2022-10-17T00:29:16.165Z,97.34
2022-10-17T00:30:16.141Z,97.55
2022-10-17T00:31:16.129Z,98.16
2022-10-17T00:32:16.112Z,98.16
2022-10-17T00:33:16.105Z,98.11
2022-10-17T00:34:16.109Z,98.16
2022-10-17T00:35:16.075Z,98.11
2022-10-17T00:36:16.073Z,98.11
2022-10-17T00:37:16.051Z,97.20
2022-10-17T00:38:16.042Z,97.50
2022-10-17T00:39:16.045Z,97.50
2022-10-17T00:40:16.018Z,97.50
2022-10-17T00:41:16.014Z,97.40
2022-10-17T00:42:16.005Z,97.20
2022-10-17T00:43:16.008Z,97.91
2022-10-17T00:44:15.990Z,97.71
2022-10-17T00:45:15.973Z,97.40
2022-10-17T00:46:15.957Z,97.40
2022-10-17T00:47:15.942Z,97.30
2022-10-17T00:48:18.891Z,97.50
2022-10-17T00:49:15.935Z,97.40
2022-10-17T00:50:15.927Z,97.20
2022-10-17T00:51:15.896Z,97.20
2022-10-17T00:52:15.900Z,97.16
2022-10-17T00:53:15.882Z,97.30
2022-10-17T00:54:15.881Z,97.30
2022-10-17T00:55:15.859Z,97.50
2022-10-17T00:56:15.852Z,96.95
2022-10-17T00:57:15.835Z,97.45
2022-10-17T00:58:15.825Z,97.16
2022-10-17T00:59:15.844Z,97.25
2022-10-17T01:00:15.796Z,96.85
2022-10-17T01:01:15.843Z,96.89
2022-10-17T01:02:15.776Z,96.89
2022-10-17T01:03:15.765Z,96.55
2022-10-17T01:04:15.776Z,96.95
2022-10-17T01:05:15.747Z,96.75
2022-10-17T01:06:15.736Z,96.65
2022-10-17T01:07:15.725Z,96.14
2022-10-17T01:08:15.719Z,96.14
2022-10-17T01:09:15.722Z,96.25
2022-10-17T01:10:15.736Z,96.25
2022-10-17T01:11:15.675Z,96.34
2022-10-17T01:12:15.672Z,96.14
2022-10-17T01:13:15.653Z,96.45
2022-10-17T01:14:15.654Z,96.34
2022-10-17T01:15:15.652Z,96.34
2022-10-17T01:16:15.622Z,96.55
2022-10-17T01:17:15.608Z,96.34
2022-10-17T01:18:15.596Z,96.14
2022-10-17T01:19:15.636Z,96.45
2022-10-17T01:20:15.579Z,96.04
2022-10-17T01:21:15.586Z,96.34
2022-10-17T01:22:15.559Z,96.65
2022-10-17T01:23:15.541Z,96.25
2022-10-17T01:24:15.528Z,96.55
2022-10-17T01:25:15.538Z,96.25
2022-10-17T01:26:15.518Z,96.45
2022-10-17T01:27:15.500Z,96.65
2022-10-17T01:28:15.486Z,96.55
2022-10-17T01:29:15.476Z,96.55
2022-10-17T01:30:15.512Z,96.39
2022-10-17T01:31:15.482Z,96.19
2022-10-17T01:32:15.449Z,96.39
2022-10-17T01:33:15.430Z,96.49
2022-10-17T01:34:15.419Z,96.19
2022-10-17T01:35:15.415Z,96.69
2022-10-17T01:36:15.407Z,96.59
2022-10-17T01:37:15.394Z,96.25
2022-10-17T01:38:15.375Z,95.98
2022-10-17T01:39:15.369Z,96.29
2022-10-17T01:40:15.382Z,96.29
2022-10-17T01:41:15.358Z,96.19
2022-10-17T01:42:15.337Z,96.09
2022-10-17T01:43:15.319Z,96.39
2022-10-17T01:44:15.318Z,96.19
2022-10-17T01:45:15.307Z,96.19
2022-10-17T01:46:15.291Z,96.80
2022-10-17T01:47:15.313Z,96.59
2022-10-17T01:48:15.265Z,97.00
2022-10-17T01:49:15.258Z,96.59
2022-10-17T01:50:15.246Z,97.00
2022-10-17T01:51:15.235Z,96.39
2022-10-17T01:52:15.230Z,96.89
2022-10-17T01:53:15.214Z,96.80
2022-10-17T01:54:15.200Z,96.74
2022-10-17T01:55:15.197Z,96.29
2022-10-17T01:56:15.179Z,97.05
2022-10-17T01:57:15.172Z,96.69
2022-10-17T01:58:15.158Z,96.80
2022-10-17T01:59:15.147Z,96.80
2022-10-17T02:00:15.126Z,96.84
2022-10-17T02:01:15.155Z,96.64
2022-10-17T02:02:15.118Z,96.89
2022-10-17T02:03:15.114Z,96.89
2022-10-17T02:04:15.092Z,96.80
2022-10-17T02:05:15.079Z,96.84
2022-10-17T02:06:15.062Z,96.89
2022-10-17T02:07:15.067Z,96.80
2022-10-17T02:08:15.045Z,96.89
2022-10-17T02:09:15.034Z,96.89
2022-10-17T02:10:15.019Z,96.64
2022-10-17T02:11:15.014Z,96.80
2022-10-17T02:12:14.993Z,96.49
2022-10-17T02:13:15.013Z,96.39
2022-10-17T02:14:14.982Z,96.34
2022-10-17T02:15:14.969Z,96.39
2022-10-17T02:16:14.957Z,96.19
2022-10-17T02:17:14.943Z,96.69
2022-10-17T02:18:14.954Z,96.44
2022-10-17T02:19:14.943Z,96.84
2022-10-17T02:20:14.905Z,96.29
2022-10-17T02:21:14.890Z,95.98
2022-10-17T02:22:14.889Z,96.39
2022-10-17T02:23:14.904Z,96.69
2022-10-17T02:24:14.873Z,96.19
2022-10-17T02:25:14.845Z,96.19
2022-10-17T02:26:14.840Z,96.23
2022-10-17T02:27:14.823Z,96.19
2022-10-17T02:28:14.825Z,96.19
2022-10-17T02:29:14.828Z,96.19
2022-10-17T02:30:14.796Z,96.29
2022-10-17T02:31:14.777Z,96.44
2022-10-17T02:32:14.816Z,96.09
2022-10-17T02:33:14.761Z,96.59
2022-10-17T02:34:14.757Z,96.74
2022-10-17T02:35:14.760Z,96.49
2022-10-17T02:36:14.719Z,96.44
2022-10-17T02:37:14.717Z,96.39
2022-10-17T02:38:14.727Z,96.69
2022-10-17T02:39:14.711Z,96.13
2022-10-17T02:40:14.681Z,96.09
2022-10-17T02:41:14.677Z,96.69
2022-10-17T02:42:14.651Z,96.69
2022-10-17T02:43:14.838Z,96.64
2022-10-17T02:44:14.649Z,96.34
2022-10-17T02:45:14.620Z,96.29
2022-10-17T02:46:14.616Z,96.29
2022-10-17T02:47:14.598Z,96.29
2022-10-17T02:48:14.603Z,96.13
2022-10-17T02:49:14.582Z,96.34
2022-10-17T02:50:14.627Z,96.03
2022-10-17T02:51:14.576Z,95.93
2022-10-17T02:52:14.548Z,95.78
2022-10-17T02:53:14.531Z,96.74
2022-10-17T02:54:14.607Z,95.93
2022-10-17T02:55:14.521Z,95.93
2022-10-17T02:56:14.505Z,95.73
2022-10-17T02:57:14.492Z,96.03
2022-10-17T02:58:14.472Z,96.74
2022-10-17T02:59:14.473Z,96.03
2022-10-17T03:00:14.479Z,95.93
2022-10-17T03:01:14.446Z,95.83
2022-10-17T03:02:14.441Z,96.74
2022-10-17T03:03:14.429Z,96.34
2022-10-17T03:04:14.413Z,96.54
2022-10-17T03:05:14.411Z,96.29
2022-10-17T03:06:14.386Z,95.89
2022-10-17T03:07:14.400Z,96.03
2022-10-17T03:08:14.369Z,95.32
2022-10-17T03:09:14.363Z,95.98
2022-10-17T03:10:14.346Z,96.13
2022-10-17T03:11:14.349Z,96.13
2022-10-17T03:12:14.317Z,95.68
2022-10-17T03:13:14.304Z,95.48
2022-10-17T03:14:14.296Z,95.83
2022-10-17T03:15:14.292Z,95.38
2022-10-17T03:16:14.294Z,95.53
2022-10-17T03:17:14.269Z,95.48
2022-10-17T03:18:14.251Z,95.58
2022-10-17T03:19:14.239Z,95.38
2022-10-17T03:20:14.228Z,95.58
2022-10-17T03:21:14.274Z,95.68
2022-10-17T03:22:14.204Z,95.48
2022-10-17T03:23:14.215Z,95.58
2022-10-17T03:24:14.188Z,95.48
2022-10-17T03:25:14.180Z,95.48
2022-10-17T03:26:14.189Z,95.48
2022-10-17T03:27:14.157Z,95.38
2022-10-17T03:28:14.144Z,95.28
2022-10-17T03:29:14.131Z,95.58
2022-10-17T03:30:14.121Z,95.78
2022-10-17T03:31:14.127Z,95.43
2022-10-17T03:32:14.091Z,95.18
2022-10-17T03:33:14.083Z,94.87
2022-10-17T03:34:14.217Z,94.87
2022-10-17T03:35:15.032Z,94.78
2022-10-17T03:36:14.066Z,94.78
2022-10-17T03:37:14.043Z,94.87
2022-10-17T03:38:14.032Z,94.78
2022-10-17T03:39:14.036Z,94.98
2022-10-17T03:40:14.002Z,95.18
2022-10-17T03:41:14.014Z,95.18
2022-10-17T03:42:13.984Z,95.07
2022-10-17T03:43:13.971Z,94.87
2022-10-17T03:44:13.963Z,95.07
2022-10-17T03:45:13.947Z,95.07
2022-10-17T03:46:14.015Z,94.87
2022-10-17T03:47:14.393Z,95.18
2022-10-17T03:48:13.932Z,94.98
2022-10-17T03:49:13.912Z,94.98
2022-10-17T03:50:13.897Z,94.87
2022-10-17T03:51:13.896Z,94.87
2022-10-17T03:52:13.871Z,94.57
2022-10-17T03:53:13.867Z,94.57
2022-10-17T03:54:13.844Z,94.07
2022-10-17T03:55:13.862Z,94.37
2022-10-17T03:56:13.837Z,94.63
2022-10-17T03:57:13.825Z,94.27
2022-10-17T03:58:13.808Z,94.17
2022-10-17T03:59:13.793Z,93.92
2022-10-17T04:00:13.785Z,94.37
2022-10-17T04:01:13.858Z,94.37
2022-10-17T04:02:13.772Z,94.37
2022-10-17T04:03:17.122Z,94.07
2022-10-17T04:04:13.739Z,93.72
2022-10-17T04:05:13.725Z,93.52
2022-10-17T04:06:13.710Z,93.52
2022-10-17T04:07:13.787Z,93.66
2022-10-17T04:08:13.707Z,93.41
2022-10-17T04:09:13.688Z,93.62
2022-10-17T04:10:13.676Z,93.62
2022-10-17T04:11:13.679Z,94.12
2022-10-17T04:12:13.661Z,94.63
2022-10-17T04:13:13.645Z,93.41
2022-10-17T04:14:13.628Z,93.62
2022-10-17T04:15:13.640Z,93.52
2022-10-17T04:16:13.612Z,93.56
2022-10-17T04:17:13.619Z,93.92
2022-10-17T04:18:13.648Z,93.62
2022-10-17T04:19:13.569Z,93.87
2022-10-17T04:20:13.571Z,93.92
2022-10-17T04:21:13.563Z,94.47
2022-10-17T04:22:13.559Z,94.43
2022-10-17T04:23:13.526Z,93.82
2022-10-17T04:24:13.517Z,94.02
2022-10-17T04:25:13.501Z,93.36
2022-10-17T04:26:13.496Z,93.41
2022-10-17T04:27:13.517Z,93.46
2022-10-17T04:28:13.470Z,93.52
2022-10-17T04:29:13.452Z,93.26
2022-10-17T04:30:13.449Z,93.76
2022-10-17T04:31:13.433Z,94.02
2022-10-17T04:32:13.448Z,93.46
2022-10-17T04:33:13.417Z,93.52
2022-10-17T04:34:13.405Z,93.41
2022-10-17T04:35:13.386Z,93.96
2022-10-17T04:36:13.382Z,93.76
2022-10-17T04:37:13.373Z,93.41
2022-10-17T04:38:13.357Z,93.76
2022-10-17T04:40:13.344Z,93.46
2022-10-17T04:41:13.325Z,93.66
2022-10-17T04:42:13.327Z,93.66
2022-10-17T04:43:13.319Z,94.57
2022-10-17T04:44:13.294Z,93.46
2022-10-17T04:45:13.273Z,93.76
2022-10-17T04:46:13.263Z,94.57
2022-10-17T04:47:13.917Z,93.76
2022-10-17T04:48:13.239Z,93.46
2022-10-17T04:49:13.236Z,94.37
2022-10-17T04:50:13.231Z,94.17
2022-10-17T04:51:13.213Z,94.37
2022-10-17T04:52:13.212Z,93.76
2022-10-17T04:53:13.189Z,93.96
2022-10-17T04:54:13.190Z,94.47
2022-10-17T04:55:13.163Z,93.71
2022-10-17T04:56:13.148Z,93.56
2022-10-17T04:57:13.155Z,93.96
2022-10-17T04:58:13.139Z,93.46
2022-10-17T04:59:13.145Z,94.21
2022-10-17T05:00:13.131Z,94.51
2022-10-17T05:01:13.161Z,94.37
2022-10-17T05:02:13.100Z,94.42
2022-10-17T05:03:13.068Z,94.42
2022-10-17T05:04:13.063Z,94.42
2022-10-17T05:05:13.050Z,94.51
2022-10-17T05:06:13.052Z,94.07
2022-10-17T05:07:13.037Z,94.11
2022-10-17T05:08:13.019Z,94.01
2022-10-17T05:09:13.013Z,94.51
2022-10-17T05:10:12.992Z,94.37
2022-10-17T05:11:12.986Z,94.07
2022-10-17T05:12:12.978Z,94.37
2022-10-17T05:13:12.960Z,94.17
2022-10-17T05:14:12.945Z,93.87
2022-10-17T05:15:12.964Z,93.56
2022-10-17T05:16:12.927Z,94.57
2022-10-17T05:17:12.929Z,94.51
2022-10-17T05:18:12.913Z,93.56
2022-10-17T05:19:12.893Z,93.81
2022-10-17T05:20:12.881Z,93.51
2022-10-17T05:21:12.903Z,93.56
2022-10-17T05:22:12.869Z,94.01
2022-10-17T05:23:12.849Z,93.66
2022-10-17T05:24:12.825Z,94.21
2022-10-17T05:25:12.818Z,94.47
2022-10-17T05:26:12.804Z,93.71
2022-10-17T05:27:12.902Z,93.60
2022-10-17T05:28:12.788Z,93.87
2022-10-17T05:29:12.776Z,93.56
2022-10-17T05:30:12.792Z,94.57
2022-10-17T05:31:12.788Z,93.76
2022-10-17T06:54:07.072Z,90.30
2022-10-17T06:55:07.034Z,90.30
2022-10-17T06:56:07.015Z,90.50
2022-10-17T06:57:07.009Z,89.90
2022-10-17T06:58:07.015Z,90.10
2022-10-17T06:59:06.987Z,90.20
2022-10-17T07:00:06.984Z,90.16
2022-10-17T07:02:06.952Z,89.95
2022-10-17T07:03:06.954Z,90.16
2022-10-17T07:04:06.930Z,89.65
2022-10-17T07:05:06.920Z,89.75
2022-10-17T07:06:06.919Z,89.25
2022-10-17T07:07:06.897Z,89.65
2022-10-17T07:08:06.885Z,88.85
2022-10-17T07:09:06.892Z,89.05
2022-10-17T07:10:06.883Z,88.65
2022-10-17T07:11:06.853Z,88.30
2022-10-17T07:12:06.841Z,88.30
2022-10-17T07:13:06.832Z,88.34
2022-10-17T07:14:06.833Z,88.10
2022-10-17T07:15:06.808Z,87.85
2022-10-17T07:16:06.822Z,88.90
2022-10-17T07:17:06.779Z,88.10
2022-10-17T07:18:06.783Z,88.10
2022-10-17T07:19:06.770Z,88.36
2022-10-17T07:20:06.754Z,88.26
2022-10-17T07:21:06.741Z,87.35
2022-10-17T07:22:06.730Z,87.96
2022-10-17T07:23:06.718Z,87.76
2022-10-17T07:24:06.723Z,87.25
2022-10-17T07:25:06.692Z,87.11
2022-10-17T07:26:06.738Z,87.45
2022-10-17T07:27:06.677Z,87.01
2022-10-17T07:28:06.663Z,87.31
2022-10-17T07:29:06.747Z,87.21
2022-10-17T07:30:06.660Z,86.91
2022-10-17T07:31:06.622Z,86.91
2022-10-17T07:32:06.623Z,86.51
2022-10-17T07:33:06.616Z,86.91
2022-10-17T07:34:06.624Z,86.91
2022-10-17T07:35:06.609Z,86.10
2022-10-17T07:36:06.580Z,86.41
2022-10-17T07:37:06.568Z,86.71
2022-10-17T07:38:06.553Z,86.41
2022-10-17T07:39:06.556Z,87.11
2022-10-17T07:40:06.523Z,87.11
2022-10-17T07:41:06.517Z,87.11
2022-10-17T07:42:06.526Z,86.66
2022-10-17T07:43:06.489Z,85.86
2022-10-17T07:44:06.488Z,86.16
2022-10-17T07:45:06.467Z,86.26
2022-10-17T07:46:06.462Z,86.16
2022-10-17T07:47:06.450Z,85.76
2022-10-17T07:48:06.435Z,85.36
2022-10-17T07:49:06.435Z,85.16
2022-10-17T07:50:06.423Z,85.11
2022-10-17T07:51:06.408Z,85.22
2022-10-17T07:52:06.421Z,85.31
2022-10-17T07:53:06.375Z,85.31
2022-10-17T07:54:06.379Z,85.11
2022-10-17T07:55:06.352Z,85.17
2022-10-17T07:56:06.345Z,84.47
2022-10-17T07:57:06.331Z,84.07
2022-10-17T07:58:06.360Z,84.07
2022-10-17T07:59:09.209Z,83.67
2022-10-17T08:00:06.306Z,83.47
2022-10-17T08:01:07.502Z,83.26
2022-10-17T08:02:06.277Z,83.33
2022-10-17T08:03:06.304Z,83.23
2022-10-17T08:04:06.273Z,83.53
2022-10-17T08:05:06.255Z,83.73
2022-10-17T08:06:06.241Z,83.43
2022-10-17T08:07:19.659Z,83.23
2022-10-17T08:08:07.211Z,83.63
2022-10-17T08:09:06.219Z,83.03
2022-10-17T08:10:06.308Z,83.63
2022-10-17T08:11:06.173Z,83.53
2022-10-17T08:12:06.168Z,83.53
2022-10-17T08:13:06.191Z,83.03
2022-10-17T08:14:06.180Z,83.53
2022-10-17T08:15:06.154Z,83.33
2022-10-17T08:16:06.118Z,83.33
2022-10-17T08:17:06.105Z,82.68
2022-10-17T08:18:06.111Z,82.38
2022-10-17T08:19:06.201Z,82.68
2022-10-17T08:20:06.084Z,81.98
2022-10-17T08:21:06.062Z,82.48
2022-10-17T08:22:06.059Z,82.34
2022-10-17T08:23:06.042Z,82.28
2022-10-17T08:24:06.042Z,81.74
2022-10-17T08:25:06.026Z,81.84
2022-10-17T08:26:06.046Z,82.04
2022-10-17T08:27:05.999Z,81.94
2022-10-17T08:28:09.046Z,81.64
2022-10-17T08:29:06.093Z,81.84
2022-10-17T08:30:05.987Z,82.24
2022-10-17T08:31:05.967Z,82.04
2022-10-17T08:32:08.988Z,81.74
2022-10-17T08:33:05.930Z,81.80
2022-10-17T08:34:05.951Z,81.94
2022-10-17T08:35:05.906Z,81.94
2022-10-17T08:36:05.903Z,81.84
2022-10-17T08:37:05.954Z,82.04
2022-10-17T08:38:05.878Z,82.14
2022-10-17T08:39:05.880Z,81.84
2022-10-17T08:40:05.862Z,81.74
2022-10-17T08:41:05.842Z,81.80
2022-10-17T08:42:05.832Z,82.04
2022-10-17T08:43:05.821Z,81.10
2022-10-17T08:44:05.826Z,81.20
2022-10-17T08:45:05.906Z,81.20
2022-10-17T08:46:05.898Z,81.10
2022-10-17T08:47:05.790Z,80.60
2022-10-17T08:48:05.766Z,80.40
2022-10-17T08:49:08.722Z,80.36
2022-10-17T08:50:06.763Z,80.86
2022-10-17T08:51:05.738Z,81.20
2022-10-17T08:52:05.720Z,81.10
2022-10-17T08:53:05.715Z,80.86
2022-10-17T08:54:05.761Z,80.66
2022-10-17T08:55:05.736Z,80.96
2022-10-17T08:56:07.190Z,81.06
2022-10-17T08:57:05.671Z,80.26
2022-10-17T08:58:05.656Z,80.16
2022-10-17T08:59:05.649Z,80.12
2022-10-17T09:00:05.652Z,80.72
2022-10-17T09:01:10.375Z,80.12
2022-10-17T09:02:06.694Z,80.02
2022-10-17T09:03:05.621Z,80.02
2022-10-17T09:04:05.585Z,80.32
2022-10-17T09:05:05.599Z,80.38
2022-10-17T09:06:05.567Z,79.08
2022-10-17T09:07:05.562Z,79.38
2022-10-17T09:08:05.542Z,78.81
2022-10-17T09:09:05.536Z,79.08
2022-10-17T09:10:05.536Z,78.98
2022-10-17T09:11:05.513Z,79.48
2022-10-17T09:12:05.504Z,78.78
2022-10-17T09:13:07.025Z,77.78
2022-10-17T09:14:05.474Z,78.28
2022-10-17T09:15:05.486Z,78.28
2022-10-17T09:16:05.460Z,79.18
2022-10-17T09:17:05.444Z,78.98
2022-10-17T09:18:05.458Z,79.08
2022-10-17T09:19:05.419Z,79.38
2022-10-17T09:20:05.423Z,79.58
2022-10-17T09:21:05.393Z,79.48
2022-10-17T09:22:05.388Z,78.98
2022-10-17T09:23:05.378Z,78.18
2022-10-17T09:24:09.409Z,78.78
2022-10-17T09:25:06.396Z,79.48
2022-10-17T09:26:05.347Z,78.28
2022-10-17T09:27:05.327Z,78.28
2022-10-17T09:28:05.331Z,78.18
2022-10-17T09:29:05.379Z,79.58
2022-10-17T09:30:07.157Z,79.58
2022-10-17T09:31:05.350Z,79.38
2022-10-17T09:32:05.276Z,78.48
2022-10-17T09:33:05.266Z,78.48
2022-10-17T09:34:05.288Z,78.88
2022-10-17T09:35:05.303Z,79.58
2022-10-17T09:36:05.262Z,79.78
2022-10-17T09:37:05.221Z,79.94
2022-10-17T09:38:05.203Z,79.14
2022-10-17T09:39:05.203Z,78.34
2022-10-17T09:40:05.189Z,79.14
2022-10-17T09:41:19.982Z,79.44
2022-10-17T09:42:06.166Z,79.14
2022-10-17T09:43:05.155Z,79.04
2022-10-17T09:44:05.146Z,79.04
2022-10-17T09:45:05.196Z,79.54
2022-10-17T09:46:05.116Z,79.64
2022-10-17T09:47:05.117Z,79.68
2022-10-17T09:48:05.092Z,79.08
2022-10-17T09:49:05.098Z,79.88
2022-10-17T09:50:05.129Z,79.68
2022-10-17T09:51:21.980Z,79.98
2022-10-17T09:52:06.085Z,79.88
2022-10-17T09:53:05.043Z,79.78
2022-10-17T09:54:05.028Z,79.88
2022-10-17T09:55:05.020Z,79.48
2022-10-17T09:56:05.005Z,80.18
2022-10-17T09:57:05.006Z,80.08
2022-10-17T09:58:04.986Z,79.88
2022-10-17T09:59:04.971Z,79.24
2022-10-17T10:00:05.102Z,79.44
2022-10-17T10:01:05.010Z,79.24
2022-10-17T10:02:04.953Z,78.70
2022-10-17T10:03:04.931Z,78.67
2022-10-17T10:04:04.936Z,77.73
2022-10-17T10:05:06.449Z,77.83
2022-10-17T10:06:04.927Z,77.89
2022-10-17T10:07:04.881Z,77.03
2022-10-17T10:08:04.890Z,76.89
2022-10-17T10:09:04.866Z,76.19
2022-10-17T10:10:04.858Z,76.22
2022-10-17T10:11:04.846Z,75.92
2022-10-17T10:12:04.836Z,74.65
2022-10-17T10:13:04.838Z,74.15
2022-10-17T10:14:04.806Z,72.92
2022-10-17T10:15:04.803Z,73.32
2022-10-17T10:16:04.791Z,73.61
2022-10-17T10:17:04.780Z,72.72
2022-10-17T10:18:04.784Z,72.81
2022-10-17T10:19:08.374Z,71.78
2022-10-17T10:20:04.745Z,71.89
2022-10-17T10:21:04.749Z,70.92
2022-10-17T10:22:04.742Z,71.51
2022-10-17T10:23:04.725Z,70.98
2022-10-17T10:24:04.695Z,69.89
2022-10-17T10:25:04.680Z,70.49
2022-10-17T10:26:04.694Z,69.49
2022-10-17T10:27:04.659Z,70.49
2022-10-17T10:28:04.693Z,70.72
2022-10-17T10:29:04.734Z,70.42
2022-10-17T10:30:04.642Z,70.36
2022-10-17T10:31:25.623Z,71.25
2022-10-17T10:32:04.612Z,71.19
2022-10-17T10:33:32.277Z,72.12
2022-10-17T10:34:04.581Z,71.52
2022-10-17T10:35:04.570Z,72.22
2022-10-17T10:36:04.564Z,72.92
2022-10-17T10:37:04.552Z,73.61
2022-10-17T10:38:04.595Z,73.65
2022-10-17T10:39:04.806Z,73.05
2022-10-17T10:40:04.518Z,73.65
2022-10-17T10:41:04.502Z,73.45
2022-10-17T10:42:04.494Z,72.99
2022-10-17T10:43:05.687Z,74.19
2022-10-17T10:44:04.475Z,73.49
2022-10-17T10:45:04.476Z,74.22
2022-10-17T10:46:04.448Z,74.68
2022-10-17T10:47:04.435Z,74.62
2022-10-17T10:48:04.451Z,75.72
2022-10-17T10:49:04.432Z,75.65
2022-10-17T10:50:04.401Z,75.32
2022-10-17T10:51:04.391Z,75.62
2022-10-17T10:52:04.379Z,75.76
2022-10-17T10:53:04.385Z,76.06
2022-10-17T10:54:04.412Z,75.42
2022-10-17T10:55:04.360Z,75.76
2022-10-17T10:56:04.339Z,75.65
2022-10-17T10:57:04.324Z,75.76
2022-10-17T10:58:04.314Z,75.85
2022-10-17T10:59:04.380Z,75.69
2022-10-17T11:00:04.400Z,76.15
2022-10-17T11:01:04.387Z,76.49
2022-10-17T11:02:04.265Z,76.26
2022-10-17T11:03:04.255Z,76.59
2022-10-17T11:04:04.263Z,76.19
2022-10-17T11:05:04.241Z,76.59
2022-10-17T11:06:04.226Z,77.49
2022-10-17T11:07:04.211Z,77.59
2022-10-17T11:08:04.203Z,77.09
2022-10-17T11:09:04.202Z,76.99
2022-10-17T11:10:04.235Z,76.49
2022-10-17T11:11:04.172Z,76.03
2022-10-17T11:12:04.157Z,76.59
2022-10-17T11:13:04.150Z,76.79
2022-10-17T11:14:04.152Z,77.59
2022-10-17T11:15:04.124Z,77.39
2022-10-17T11:16:04.114Z,77.49
2022-10-17T11:17:04.113Z,77.43
2022-10-17T11:18:04.095Z,77.39
2022-10-17T11:19:04.102Z,77.23
2022-10-17T11:20:04.079Z,77.79
2022-10-17T11:21:04.060Z,77.89
2022-10-17T11:22:04.056Z,77.53
2022-10-17T11:23:04.039Z,77.69
2022-10-17T11:24:06.879Z,78.03
2022-10-17T11:25:04.050Z,78.03
2022-10-17T11:26:04.026Z,78.49
2022-10-17T11:27:03.995Z,78.03
2022-10-17T11:28:05.289Z,77.93
2022-10-17T11:29:04.057Z,77.69
2022-10-17T11:30:03.996Z,77.89
2022-10-17T11:31:07.089Z,77.79
2022-10-17T11:32:03.941Z,77.73
2022-10-17T11:33:03.936Z,78.19
2022-10-17T11:34:03.919Z,78.09
2022-10-17T11:35:03.921Z,78.19
2022-10-17T11:36:03.898Z,78.09
2022-10-17T11:37:03.884Z,78.19
2022-10-17T11:38:03.873Z,78.09
2022-10-17T11:39:03.863Z,78.09
2022-10-17T11:40:03.866Z,77.89
2022-10-17T11:41:03.841Z,77.89
2022-10-17T11:42:04.350Z,78.09
2022-10-17T11:43:03.818Z,77.69
2022-10-17T11:44:03.818Z,78.09
2022-10-17T11:45:03.837Z,78.39
2022-10-17T11:46:03.784Z,77.89
2022-10-17T11:47:03.771Z,78.39
2022-10-17T11:48:03.760Z,77.99
2022-10-17T11:49:03.833Z,77.75
2022-10-17T11:52:04.726Z,78.25
2022-10-17T11:53:04.305Z,78.19
2022-10-17T11:54:03.697Z,78.39
2022-10-17T11:55:03.684Z,78.39
2022-10-17T11:56:03.688Z,77.59
2022-10-17T11:57:03.664Z,77.36
2022-10-17T11:58:03.757Z,78.05
2022-10-17T11:59:03.641Z,78.25
2022-10-17T12:00:03.627Z,77.45
2022-10-17T12:01:03.634Z,76.65
2022-10-17T12:02:03.612Z,76.86
2022-10-17T12:03:03.593Z,76.95
2022-10-17T12:04:03.654Z,76.76
2022-10-17T12:05:03.574Z,76.15
2022-10-17T12:06:03.574Z,76.26
2022-10-17T12:07:03.553Z,76.65
2022-10-17T12:08:03.539Z,76.26
2022-10-17T12:09:03.531Z,75.35
2022-10-17T12:10:03.516Z,75.96
2022-10-17T12:11:03.506Z,75.52
2022-10-17T12:12:03.513Z,75.56
2022-10-17T12:13:03.558Z,75.56
2022-10-17T12:14:05.796Z,75.42
2022-10-17T12:15:03.486Z,75.12
2022-10-17T12:16:03.451Z,75.32
2022-10-17T12:17:03.455Z,74.72
2022-10-17T12:18:03.431Z,75.02
2022-10-17T12:19:03.432Z,75.02
2022-10-17T12:20:03.408Z,74.82
2022-10-17T12:21:03.401Z,75.02
2022-10-17T12:22:03.410Z,74.85
2022-10-17T12:23:03.375Z,75.72
2022-10-17T12:24:03.366Z,75.05
2022-10-17T12:25:03.354Z,75.22
2022-10-17T12:26:05.251Z,75.96
2022-10-17T12:27:03.332Z,76.22
2022-10-17T12:28:03.364Z,77.36
2022-10-17T12:29:03.386Z,77.06
2022-10-17T12:30:03.318Z,78.36
2022-10-17T12:31:03.293Z,77.56
2022-10-17T12:32:03.278Z,76.86
2022-10-17T12:33:06.522Z,76.95
2022-10-17T12:34:03.269Z,77.25
2022-10-17T12:35:03.249Z,76.35
2022-10-17T12:36:03.236Z,75.96
2022-10-17T12:37:03.224Z,76.65
2022-10-17T12:38:03.215Z,77.75
2022-10-17T12:39:03.234Z,76.76
2022-10-17T12:40:03.188Z,76.56
2022-10-17T12:41:03.183Z,77.86
2022-10-17T12:42:03.170Z,76.49
2022-10-17T12:43:03.165Z,76.65
2022-10-17T12:44:03.169Z,76.86
2022-10-17T12:45:03.144Z,76.86
2022-10-17T12:46:03.160Z,77.75
2022-10-17T12:47:03.117Z,76.45
2022-10-17T12:48:03.102Z,76.56
2022-10-17T12:49:03.110Z,76.56
2022-10-17T12:50:03.080Z,76.26
2022-10-17T12:51:30.775Z,76.56
2022-10-17T12:52:04.059Z,76.26
2022-10-17T12:53:03.048Z,75.56
2022-10-17T12:54:03.056Z,75.46
2022-10-17T12:55:17.033Z,76.15
2022-10-17T12:56:04.014Z,75.96
2022-10-17T12:57:03.006Z,76.06
2022-10-17T12:58:02.994Z,75.96
2022-10-17T12:59:02.985Z,76.06
2022-10-17T13:00:03.001Z,75.85
2022-10-17T13:01:23.276Z,76.06
2022-10-17T13:02:04.034Z,75.92
2022-10-17T13:03:02.937Z,76.15
2022-10-17T13:04:02.925Z,76.15
2022-10-17T13:05:02.929Z,76.02
2022-10-17T13:06:02.902Z,75.76
2022-10-17T13:07:02.894Z,76.15
2022-10-17T13:08:02.882Z,76.15
2022-10-17T13:09:04.135Z,76.65
2022-10-17T13:10:02.871Z,76.26
2022-10-17T13:11:02.853Z,75.96
2022-10-17T13:12:02.837Z,76.15
2022-10-17T13:13:02.855Z,76.06
2022-10-17T13:14:02.816Z,76.06
2022-10-17T13:15:02.813Z,76.06
2022-10-17T13:16:02.795Z,75.76
2022-10-17T13:17:02.780Z,75.65
2022-10-17T13:18:02.797Z,75.96
2022-10-17T13:19:02.758Z,75.96
2022-10-17T13:20:02.758Z,75.85
2022-10-17T13:21:02.750Z,76.35
2022-10-17T13:22:06.711Z,76.26
2022-10-17T13:23:02.718Z,76.26
2022-10-17T13:24:02.705Z,75.96
2022-10-17T13:25:02.720Z,76.45
2022-10-17T13:26:02.683Z,76.49
2022-10-17T13:27:02.683Z,76.56
2022-10-17T13:28:02.660Z,76.26
2022-10-17T13:29:02.808Z,75.96
2022-10-17T13:30:02.657Z,76.65
2022-10-17T13:31:02.633Z,75.96
2022-10-17T13:32:02.617Z,76.26
2022-10-17T13:33:02.606Z,76.65
2022-10-17T13:34:02.619Z,76.56
2022-10-17T13:35:02.614Z,76.56
2022-10-17T13:36:02.588Z,76.39
2022-10-17T13:37:02.567Z,76.39
2022-10-17T13:38:02.565Z,76.56
2022-10-17T13:39:02.542Z,76.15
2022-10-17T13:40:17.572Z,75.96
2022-10-17T13:41:30.055Z,76.19
2022-10-17T13:42:03.518Z,76.29
2022-10-17T13:43:02.497Z,76.09
2022-10-17T13:44:02.488Z,76.29
2022-10-17T13:45:02.475Z,75.96
2022-10-17T13:46:19.259Z,76.26
2022-10-17T13:47:03.473Z,75.85
2022-10-17T13:48:02.443Z,76.15
2022-10-17T13:49:02.428Z,75.79
2022-10-17T13:50:02.444Z,75.46
2022-10-17T13:51:03.120Z,75.26
2022-10-17T13:52:02.415Z,75.35
2022-10-17T13:53:02.387Z,75.65
2022-10-17T13:54:02.374Z,75.26
2022-10-17T13:55:02.362Z,75.26
2022-10-17T13:56:26.775Z,75.52
2022-10-17T13:57:03.356Z,74.66
2022-10-17T13:58:02.329Z,74.55
2022-10-17T13:59:02.320Z,75.35
2022-10-17T14:00:02.312Z,74.85
2022-10-17T14:01:02.327Z,74.72
2022-10-17T14:02:02.302Z,75.02
2022-10-17T14:03:02.277Z,75.52
2022-10-17T14:04:09.351Z,74.62
2022-10-17T14:05:19.711Z,74.62
2022-10-17T14:06:03.339Z,74.62
2022-10-17T14:07:02.286Z,74.52
2022-10-17T14:08:22.703Z,74.92
2022-10-17T14:09:03.215Z,74.62
2022-10-17T14:10:02.201Z,74.32
2022-10-17T14:11:02.212Z,73.99
2022-10-17T14:12:02.177Z,74.02
2022-10-17T14:13:02.181Z,73.92
2022-10-17T14:14:02.154Z,74.32
2022-10-17T14:15:10.803Z,74.02
2022-10-17T14:16:03.132Z,73.52
2022-10-17T14:17:02.128Z,74.08
2022-10-17T14:18:06.711Z,73.28